Time;durP1;ratioP1;P1;durP2;ratioP2;P2;SDS_P1;SDS_P2;PMS_P1;PMS_P2;Temp;Humidity;BMP_temperature;BMP_pressure;BME280_temperature;BME280_humidity;BME280_pressure;Samples;Min_cycle;Max_cycle;Signal;HPM_P1;HPM_P2
2021/05/31 00:01:01;;;;;;;20.10;11.88;;;17.60;53.40;;;;;;4883677;29;20033;-79
2021/05/31 00:03:27;;;;;;;18.42;11.90;;;17.50;53.80;;;;;;4882295;29;20033;-79
2021/05/31 00:05:53;;;;;;;16.00;10.70;;;17.50;53.20;;;;;;4867251;29;20049;-79
2021/05/31 00:08:18;;;;;;;18.73;13.20;;;17.50;53.70;;;;;;4866445;29;20420;-81
2021/05/31 00:10:45;;;;;;;19.85;12.40;;;17.40;58.40;;;;;;4868234;29;20022;-80
2021/05/31 00:13:11;;;;;;;20.98;14.23;;;17.40;57.30;;;;;;4880662;29;20028;-80
2021/05/31 00:15:37;;;;;;;22.55;14.52;;;17.40;59.10;;;;;;4883667;29;20032;-81
2021/05/31 00:18:02;;;;;;;18.40;13.55;;;17.30;57.20;;;;;;4883355;29;20035;-81
2021/05/31 00:20:28;;;;;;;20.33;12.82;;;17.30;57.60;;;;;;4883524;29;20044;-81
2021/05/31 00:22:54;;;;;;;17.63;12.20;;;17.30;55.60;;;;;;4883339;29;20029;-81
2021/05/31 00:25:20;;;;;;;21.00;13.63;;;17.30;55.10;;;;;;4883592;29;20025;-81
2021/05/31 00:27:46;;;;;;;19.15;12.15;;;17.20;56.20;;;;;;4883039;29;20868;-81
2021/05/31 00:33:34;;;;;;;18.77;12.50;;;17.20;54.40;;;;;;4883676;29;20048;-80
2021/05/31 00:36:00;;;;;;;18.65;12.40;;;17.10;54.30;;;;;;4883430;29;20045;-80
2021/05/31 00:38:26;;;;;;;17.33;12.15;;;17.10;54.10;;;;;;4882143;29;20029;-81
2021/05/31 00:40:52;;;;;;;17.40;11.15;;;17.10;54.10;;;;;;4863248;29;20045;-81
2021/05/31 00:43:17;;;;;;;17.73;12.23;;;17.10;53.90;;;;;;4870870;29;20025;-80
2021/05/31 00:45:43;;;;;;;18.40;12.48;;;17.00;53.90;;;;;;4875483;29;20040;-80
2021/05/31 00:48:09;;;;;;;20.30;12.63;;;17.00;54.20;;;;;;4869654;29;20044;-80
2021/05/31 00:50:35;;;;;;;17.33;11.88;;;17.00;53.90;;;;;;4864611;29;20037;-80
2021/05/31 00:53:01;;;;;;;18.20;12.52;;;16.90;53.80;;;;;;4864846;29;20042;-80
2021/05/31 00:55:27;;;;;;;18.63;12.65;;;16.90;53.90;;;;;;4864669;29;20474;-81
2021/05/31 00:57:54;;;;;;;20.38;12.93;;;16.90;53.80;;;;;;4868858;29;20022;-81
2021/05/31 01:00:26;;;;;;;20.63;13.80;;;16.80;53.90;;;;;;4886548;29;20021;-80
2021/05/31 01:02:52;;;;;;;16.85;11.48;;;16.80;54.10;;;;;;4886935;29;20370;-80
2021/05/31 01:09:28;;;;;;;21.77;12.90;;;16.80;54.10;;;;;;4872893;29;20075;-79
2021/05/31 01:11:59;;;;;;;;;;;16.70;54.00;;;;;;4875384;29;20021;-80
2021/05/31 01:14:32;;;;;;;20.35;12.07;;;16.70;54.00;;;;;;4868092;29;19908;-79
2021/05/31 01:17:21;;;;;;;16.92;12.07;;;16.60;54.00;;;;;;4868013;29;20021;-79
2021/05/31 01:19:50;;;;;;;18.23;12.07;;;16.60;54.10;;;;;;4867966;29;20099;-79
2021/05/31 01:22:19;;;;;;;20.17;12.55;;;16.50;54.10;;;;;;4867976;29;20517;-80
2021/05/31 01:24:51;;;;;;;17.83;11.70;;;16.50;54.10;;;;;;4867790;29;20104;-80
2021/05/31 01:27:20;;;;;;;18.25;11.07;;;16.50;54.10;;;;;;4866360;29;20149;-82
2021/05/31 01:29:56;;;;;;;18.15;11.80;;;16.40;54.00;;;;;;4867909;29;20064;-81
2021/05/31 01:32:43;;;;;;;19.05;12.10;;;16.40;54.00;;;;;;4867687;29;20389;-81
2021/05/31 01:35:14;;;;;;;18.23;12.10;;;16.40;53.80;;;;;;4867125;29;20037;-81
2021/05/31 01:37:42;;;;;;;17.92;12.60;;;16.30;53.80;;;;;;4867949;29;20037;-81
2021/05/31 01:40:10;;;;;;;18.40;11.95;;;16.30;53.80;;;;;;4874205;29;20021;-81
2021/05/31 01:42:36;;;;;;;19.75;11.93;;;16.30;53.90;;;;;;4869447;29;20026;-81
2021/05/31 01:45:05;;;;;;;20.65;12.80;;;16.20;53.90;;;;;;4876646;29;20028;-81
2021/05/31 01:47:33;;;;;;;19.75;11.88;;;16.20;53.90;;;;;;4866644;29;20021;-82
2021/05/31 01:49:59;;;;;;;20.95;14.00;;;16.20;54.00;;;;;;4851133;29;20036;-81
2021/05/31 01:52:26;;;;;;;22.38;13.52;;;16.10;56.90;;;;;;4867311;29;20026;-81
2021/05/31 01:54:56;;;;;;;24.60;13.18;;;16.10;56.20;;;;;;4867481;29;20105;-79
2021/05/31 01:57:24;;;;;;;19.67;13.15;;;16.10;56.30;;;;;;4867042;29;20561;-79
2021/05/31 01:59:51;;;;;;;23.27;13.60;;;16.00;56.20;;;;;;4883967;29;20053;-79
2021/05/31 02:02:18;;;;;;;18.42;12.73;;;16.00;56.60;;;;;;4850990;29;20037;-80
2021/05/31 02:04:45;;;;;;;23.25;14.05;;;16.00;55.60;;;;;;4850355;29;20026;-80
2021/05/31 02:07:11;;;;;;;21.60;13.70;;;15.90;56.10;;;;;;4867043;29;20034;-81
2021/05/31 02:09:38;;;;;;;21.45;12.40;;;15.90;55.20;;;;;;4878754;29;20524;-81
2021/05/31 02:12:04;;;;;;;21.00;13.25;;;15.90;55.10;;;;;;4874437;29;20017;-81
2021/05/31 02:14:43;;;;;;;18.65;12.45;;;15.90;55.00;;;;;;4867029;29;20401;-81
2021/05/31 02:17:28;;;;;;;18.52;12.07;;;15.90;54.80;;;;;;4867036;29;20101;-82
2021/05/31 02:19:59;;;;;;;22.02;13.32;;;15.80;54.70;;;;;;4866895;29;20038;-81
2021/05/31 02:22:28;;;;;;;20.30;12.57;;;15.80;54.70;;;;;;4867112;29;20025;-81
2021/05/31 02:24:55;;;;;;;19.55;13.07;;;15.70;54.60;;;;;;4866907;29;20050;-82
2021/05/31 02:27:22;;;;;;;19.85;12.18;;;15.70;54.40;;;;;;4866655;29;20030;-82
2021/05/31 02:29:48;;;;;;;21.48;12.57;;;15.70;54.40;;;;;;4873188;29;20064;-82
2021/05/31 02:32:13;;;;;;;23.60;13.48;;;15.70;54.50;;;;;;4872440;29;20033;-82
2021/05/31 02:34:39;;;;;;;21.50;13.32;;;15.60;54.40;;;;;;4866899;29;20030;-82
2021/05/31 02:37:08;;;;;;;23.02;13.75;;;15.60;54.80;;;;;;4849939;29;20489;-82
2021/05/31 02:39:35;;;;;;;25.08;13.95;;;15.60;55.00;;;;;;4868937;29;20028;-83
2021/05/31 02:42:01;;;;;;;23.20;14.70;;;15.50;57.80;;;;;;4872889;29;20038;-81
2021/05/31 02:44:26;;;;;;;26.55;16.45;;;15.50;57.90;;;;;;4871103;29;20036;-81
2021/05/31 02:46:52;;;;;;;25.35;15.48;;;15.50;60.00;;;;;;4890458;29;20400;-81
2021/05/31 02:49:18;;;;;;;25.23;16.17;;;15.50;58.20;;;;;;4866457;29;20030;-81
2021/05/31 02:51:44;;;;;;;31.10;15.88;;;15.40;57.30;;;;;;4866418;29;20101;-80
2021/05/31 02:54:12;;;;;;;28.17;15.50;;;15.40;58.90;;;;;;4866329;29;20032;-81
2021/05/31 02:56:38;;;;;;;28.13;16.40;;;15.40;60.00;;;;;;4866086;29;20060;-81
2021/05/31 02:59:04;;;;;;;25.40;15.80;;;15.40;60.00;;;;;;4861344;29;20025;-80
2021/05/31 03:01:29;;;;;;;25.48;15.52;;;15.30;58.00;;;;;;4884570;29;20507;-81
2021/05/31 03:03:55;;;;;;;27.02;15.73;;;15.30;57.70;;;;;;4884936;29;20477;-80
2021/05/31 03:06:21;;;;;;;23.40;15.27;;;15.30;58.80;;;;;;4884587;29;20049;-79
2021/05/31 03:08:47;;;;;;;23.38;14.98;;;15.20;57.40;;;;;;4884897;29;20033;-80
2021/05/31 03:11:14;;;;;;;23.80;14.93;;;15.20;56.80;;;;;;4877595;29;20560;-80
2021/05/31 03:13:40;;;;;;;25.80;14.27;;;15.20;56.30;;;;;;4866235;29;20097;-80
2021/05/31 03:16:06;;;;;;;23.45;14.30;;;15.20;56.00;;;;;;4866008;29;20025;-80
2021/05/31 03:18:32;;;;;;;22.10;13.65;;;15.20;55.70;;;;;;4865999;29;20561;-80
2021/05/31 03:20:58;;;;;;;21.83;14.10;;;15.10;55.60;;;;;;4865181;29;20116;-80
2021/05/31 03:23:24;;;;;;;25.52;14.93;;;15.10;55.50;;;;;;4865929;29;20022;-80
2021/05/31 03:25:49;;;;;;;22.13;14.50;;;15.10;55.40;;;;;;4865765;29;20108;-79
2021/05/31 03:28:15;;;;;;;23.02;13.65;;;15.10;55.40;;;;;;4865580;29;20161;-79
2021/05/31 03:30:41;;;;;;;20.90;13.70;;;15.00;55.20;;;;;;4865631;29;20032;-79
2021/05/31 03:33:07;;;;;;;22.52;14.10;;;15.00;55.20;;;;;;4865799;29;20087;-79
2021/05/31 03:35:33;;;;;;;21.23;13.57;;;15.00;55.10;;;;;;4865543;29;20033;-79
2021/05/31 03:37:58;;;;;;;22.90;13.82;;;14.90;55.10;;;;;;4865688;29;20057;-79
2021/05/31 03:40:25;;;;;;;20.83;13.13;;;14.90;55.20;;;;;;4860860;29;20025;-79
2021/05/31 03:42:54;;;;;;;20.67;12.32;;;14.90;55.20;;;;;;4867355;29;20025;-79
2021/05/31 03:45:20;;;;;;;20.52;13.05;;;14.80;55.10;;;;;;4883612;29;20059;-79
2021/05/31 03:47:46;;;;;;;18.25;12.10;;;14.80;55.20;;;;;;4870484;29;20513;-79
2021/05/31 03:50:12;;;;;;;20.02;12.27;;;14.80;55.30;;;;;;4861726;29;20029;-79
2021/05/31 03:52:38;;;;;;;20.38;12.70;;;14.70;55.90;;;;;;4877233;29;20073;-80
2021/05/31 03:55:06;;;;;;;18.27;12.20;;;14.70;55.30;;;;;;4865596;29;20549;-79
2021/05/31 03:57:33;;;;;;;22.90;13.98;;;14.70;55.00;;;;;;4863911;29;20030;-80
2021/05/31 03:59:59;;;;;;;20.90;13.23;;;14.70;56.40;;;;;;4881388;29;20048;-80
2021/05/31 04:02:25;;;;;;;21.75;13.80;;;14.60;56.00;;;;;;4865355;29;20026;-80
2021/05/31 04:04:53;;;;;;;25.80;15.10;;;14.60;56.50;;;;;;4865138;29;20030;-79
2021/05/31 04:12:51;;;;;;;24.95;16.10;;;14.50;58.70;;;;;;4863393;29;20443;-80
2021/05/31 04:15:18;;;;;;;27.80;17.05;;;14.50;58.80;;;;;;4848417;29;20026;-80
2021/05/31 04:17:43;;;;;;;27.38;16.13;;;14.50;59.80;;;;;;4848367;29;20022;-80
2021/05/31 04:20:10;;;;;;;27.85;16.42;;;14.50;61.30;;;;;;4865054;29;20408;-81
2021/05/31 04:22:36;;;;;;;28.65;17.40;;;14.40;59.50;;;;;;4864916;29;20037;-80
2021/05/31 04:25:03;;;;;;;26.65;16.95;;;14.40;61.10;;;;;;4865181;29;20038;-81
2021/05/31 04:27:29;;;;;;;26.80;14.98;;;14.40;59.00;;;;;;4864674;29;20081;-80
2021/05/31 04:29:54;;;;;;;24.90;15.15;;;14.40;59.80;;;;;;4848115;29;20057;-80
2021/05/31 04:32:20;;;;;;;32.72;17.83;;;14.40;58.90;;;;;;4864713;29;20021;-79
2021/05/31 04:34:46;;;;;;;27.83;17.25;;;14.30;59.70;;;;;;4864944;29;20053;-80
2021/05/31 04:37:12;;;;;;;34.15;19.27;;;14.40;60.80;;;;;;4864859;29;20030;-79
2021/05/31 04:39:38;;;;;;;30.60;18.45;;;14.30;64.00;;;;;;4870874;29;20079;-80
2021/05/31 04:42:07;;;;;;;26.77;16.63;;;14.30;63.00;;;;;;4883236;29;20025;-80
2021/05/31 04:44:34;;;;;;;28.50;17.77;;;14.30;60.80;;;;;;4871316;29;20067;-80
2021/05/31 04:47:00;;;;;;;30.85;18.15;;;14.30;60.00;;;;;;4875271;29;20029;-80
2021/05/31 04:49:26;;;;;;;31.63;19.27;;;14.30;61.90;;;;;;4864882;29;20041;-79
2021/05/31 04:51:52;;;;;;;29.77;18.08;;;14.20;63.70;;;;;;4864747;29;20021;-77
2021/05/31 04:54:18;;;;;;;28.73;17.45;;;14.20;62.90;;;;;;4864823;29;20109;-77
2021/05/31 04:56:44;;;;;;;29.55;17.73;;;14.20;61.70;;;;;;4864438;29;20022;-77
2021/05/31 04:59:13;;;;;;;34.90;18.35;;;14.20;60.50;;;;;;4876173;29;20044;-78
2021/05/31 05:01:39;;;;;;;26.95;17.38;;;14.20;61.30;;;;;;4868924;29;20029;-78
2021/05/31 05:04:06;;;;;;;29.38;17.60;;;14.20;60.20;;;;;;4864990;29;20081;-78
2021/05/31 05:06:33;;;;;;;30.45;18.70;;;14.20;61.80;;;;;;4863179;29;20064;-78
2021/05/31 05:08:59;;;;;;;33.33;18.42;;;14.20;62.20;;;;;;4870652;29;20037;-78
2021/05/31 05:11:25;;;;;;;30.52;18.95;;;14.20;61.60;;;;;;4863679;29;20111;-78
2021/05/31 05:13:52;;;;;;;28.65;17.40;;;14.20;61.40;;;;;;4864641;29;20443;-77
2021/05/31 05:16:18;;;;;;;25.60;16.08;;;14.20;60.40;;;;;;4864366;29;20022;-79
2021/05/31 05:18:46;;;;;;;32.08;19.13;;;14.20;61.40;;;;;;4864474;29;20405;-79
2021/05/31 05:21:12;;;;;;;36.22;19.33;;;14.30;61.30;;;;;;4848033;29;20404;-79
2021/05/31 05:23:38;;;;;;;34.97;20.00;;;14.20;63.20;;;;;;4864657;29;20034;-79
2021/05/31 05:26:05;;;;;;;31.77;18.40;;;14.20;62.90;;;;;;4864399;29;20460;-79
2021/05/31 05:28:32;;;;;;;35.00;19.10;;;14.30;63.80;;;;;;4864179;29;20108;-78
2021/05/31 05:31:02;;;;;;;33.13;19.63;;;14.20;62.90;;;;;;4864370;29;20022;-79
2021/05/31 05:33:29;;;;;;;33.80;20.67;;;14.30;63.50;;;;;;4865183;29;20026;-76
2021/05/31 05:35:59;;;;;;;35.40;18.77;;;14.30;62.40;;;;;;4878148;29;20025;-77
2021/05/31 05:38:44;;;;;;;40.35;20.92;;;14.30;62.90;;;;;;4865068;29;20124;-78
2021/05/31 05:46:32;;;;;;;36.40;21.15;;;14.30;64.20;;;;;;4882611;29;20473;-75
2021/05/31 05:48:58;;;;;;;32.63;19.27;;;14.30;65.10;;;;;;4882949;29;20056;-72
2021/05/31 05:51:24;;;;;;;31.05;19.40;;;14.40;64.10;;;;;;4885173;29;20022;-83
2021/05/31 05:53:51;;;;;;;32.80;18.88;;;14.40;62.60;;;;;;4876262;29;20025;-84
2021/05/31 05:56:19;;;;;;;33.60;19.83;;;14.40;63.70;;;;;;4872277;29;20029;-91
2021/05/31 05:58:46;;;;;;;37.15;20.65;;;14.40;62.80;;;;;;4875873;29;20472;-81
2021/05/31 06:01:13;;;;;;;37.08;20.27;;;14.40;63.40;;;;;;4871596;29;20061;-83
2021/05/31 06:03:40;;;;;;;30.83;18.42;;;14.50;62.30;;;;;;4868933;29;20061;-88
2021/05/31 06:06:07;;;;;;;28.83;17.05;;;14.50;61.50;;;;;;4877275;29;20046;-75
2021/05/31 06:08:33;;;;;;;29.90;16.83;;;14.50;60.90;;;;;;4871309;29;20065;-78
2021/05/31 06:10:59;;;;;;;30.40;17.00;;;14.50;60.90;;;;;;4870145;29;20146;-77
2021/05/31 06:13:25;;;;;;;24.85;16.00;;;14.50;60.70;;;;;;4859765;29;20033;-76
2021/05/31 06:15:52;;;;;;;32.63;18.85;;;14.60;61.30;;;;;;4872038;29;20031;-79
2021/05/31 06:18:18;;;;;;;37.25;20.20;;;14.60;65.00;;;;;;4851451;29;20093;-77
2021/05/31 06:20:44;;;;;;;36.17;21.45;;;14.60;66.10;;;;;;4866489;29;20045;-75
2021/05/31 06:23:11;;;;;;;35.53;20.70;;;14.70;67.10;;;;;;4866344;29;20450;-73
2021/05/31 06:25:38;;;;;;;39.95;22.45;;;14.70;65.50;;;;;;4850256;29;20029;-75
2021/05/31 06:28:05;;;;;;;34.65;20.90;;;14.70;67.50;;;;;;4849543;29;20034;-75
2021/05/31 06:30:31;;;;;;;36.88;20.15;;;14.70;66.80;;;;;;4866178;29;20018;-77
2021/05/31 06:32:57;;;;;;;36.70;19.85;;;14.80;66.50;;;;;;4849996;29;20026;-77
2021/05/31 06:35:25;;;;;;;42.28;22.42;;;14.80;65.60;;;;;;4866448;29;20033;-78
2021/05/31 06:37:51;;;;;;;37.67;22.42;;;14.90;67.20;;;;;;4856041;29;20397;-78
2021/05/31 06:40:17;;;;;;;32.60;20.63;;;14.90;67.20;;;;;;4883173;29;20163;-69
2021/05/31 06:42:45;;;;;;;37.60;24.35;;;15.00;66.80;;;;;;4878123;29;20037;-73
2021/05/31 06:45:23;;;;;;;40.10;23.67;;;15.00;67.20;;;;;;4875748;29;20112;-74
2021/05/31 06:47:53;;;;;;;34.30;20.35;;;15.10;66.60;;;;;;4873882;29;20489;-73
2021/05/31 06:50:19;;;;;;;36.08;20.08;;;15.30;65.60;;;;;;4863949;29;20400;-77
2021/05/31 06:52:46;;;;;;;29.52;17.73;;;15.50;66.10;;;;;;4884627;29;20029;-76
2021/05/31 06:55:13;;;;;;;29.02;16.75;;;15.80;67.00;;;;;;4867369;29;20109;-78
2021/05/31 06:57:40;;;;;;;23.23;15.18;;;16.20;68.50;;;;;;4873460;29;20477;-75
2021/05/31 07:00:08;;;;;;;21.80;14.35;;;16.70;70.30;;;;;;4883116;29;20036;-75
2021/05/31 07:02:34;;;;;;;20.65;12.82;;;17.20;71.20;;;;;;4881152;29;20033;-75
2021/05/31 07:05:00;;;;;;;25.08;14.38;;;17.70;72.30;;;;;;4883483;29;20098;-76
2021/05/31 07:07:26;;;;;;;18.98;13.32;;;18.20;71.80;;;;;;4870654;29;20038;-76
2021/05/31 07:09:52;;;;;;;19.10;12.98;;;18.70;71.60;;;;;;4869806;29;20029;-76
2021/05/31 07:12:18;;;;;;;19.35;12.30;;;19.30;71.80;;;;;;4870697;29;20417;-75
2021/05/31 07:14:46;;;;;;;19.20;13.18;;;19.90;71.50;;;;;;4865254;29;20021;-78
2021/05/31 07:17:13;;;;;;;16.83;12.68;;;20.50;71.00;;;;;;4865157;29;20021;-76
2021/05/31 07:19:44;;;;;;;18.70;11.95;;;21.10;70.80;;;;;;4864874;29;20082;-76
2021/05/31 07:22:15;;;;;;;16.38;12.30;;;21.70;70.10;;;;;;4864902;29;20052;-76
2021/05/31 07:24:41;;;;;;;18.25;12.48;;;22.20;67.90;;;;;;4865071;29;20033;-77
2021/05/31 07:27:07;;;;;;;17.98;13.55;;;22.70;67.00;;;;;;4864582;29;20043;-76
2021/05/31 07:29:33;;;;;;;15.68;11.95;;;23.20;67.00;;;;;;4865034;29;20374;-76
2021/05/31 07:31:59;;;;;;;17.42;12.27;;;23.70;66.80;;;;;;4863994;29;20081;-76
2021/05/31 07:34:25;;;;;;;16.33;11.68;;;24.10;65.30;;;;;;4865152;29;20033;-76
2021/05/31 07:36:51;;;;;;;15.13;11.15;;;24.50;63.30;;;;;;4851212;29;20045;-78
2021/05/31 07:39:17;;;;;;;14.32;10.63;;;24.90;63.30;;;;;;4882885;29;20028;-79
2021/05/31 07:41:43;;;;;;;13.80;10.00;;;25.20;62.50;;;;;;4863726;29;20044;-79
2021/05/31 07:44:09;;;;;;;16.23;10.23;;;25.60;61.20;;;;;;4879550;29;20034;-79
2021/05/31 07:46:35;;;;;;;14.30;8.55;;;25.90;60.90;;;;;;4875471;29;20025;-78
2021/05/31 07:49:01;;;;;;;11.68;8.40;;;26.20;60.30;;;;;;4879294;29;20104;-78
2021/05/31 07:51:27;;;;;;;13.45;7.85;;;26.50;57.80;;;;;;4848190;29;20542;-78
2021/05/31 07:53:56;;;;;;;12.43;7.97;;;26.80;56.80;;;;;;4863588;29;20018;-78
2021/05/31 07:56:26;;;;;;;11.88;8.48;;;27.00;57.20;;;;;;4864277;29;20029;-78
2021/05/31 07:58:52;;;;;;;12.55;8.27;;;27.30;57.90;;;;;;4873740;29;20020;-79
2021/05/31 08:01:18;;;;;;;8.98;7.53;;;27.60;58.00;;;;;;4871768;29;20474;-78
2021/05/31 08:03:44;;;;;;;9.73;6.63;;;27.90;55.70;;;;;;4864199;29;20097;-77
2021/05/31 08:06:10;;;;;;;9.80;7.75;;;28.20;56.20;;;;;;4847804;29;20509;-76
2021/05/31 08:08:37;;;;;;;78.93;67.78;;;28.50;57.00;;;;;;4852890;29;20028;-76
2021/05/31 08:11:03;;;;;;;13.65;10.05;;;28.70;56.10;;;;;;4882990;29;20018;-76
2021/05/31 08:13:29;;;;;;;9.18;6.30;;;29.10;56.30;;;;;;4864982;29;20064;-76
2021/05/31 08:15:55;;;;;;;8.95;5.80;;;29.30;55.60;;;;;;4847844;29;20474;-75
2021/05/31 08:18:21;;;;;;;8.95;5.78;;;29.50;53.90;;;;;;4870034;29;20060;-76
2021/05/31 08:20:47;;;;;;;15.93;5.45;;;29.70;53.40;;;;;;4871081;29;20025;-76
2021/05/31 08:23:14;;;;;;;7.82;5.47;;;30.00;53.40;;;;;;4864431;29;20029;-76
2021/05/31 08:25:41;;;;;;;7.75;4.65;;;30.30;48.10;;;;;;4864564;29;20029;-75
2021/05/31 08:28:07;;;;;;;8.00;4.88;;;30.40;51.80;;;;;;4870274;29;20025;-76
2021/05/31 08:30:37;;;;;;;8.32;4.80;;;30.70;49.10;;;;;;4869956;29;20041;-76
2021/05/31 08:33:05;;;;;;;7.47;4.25;;;30.70;48.00;;;;;;4864430;29;20037;-76
2021/05/31 08:35:42;;;;;;;8.68;4.63;;;30.90;47.20;;;;;;4862659;29;20046;-76
2021/05/31 08:38:09;;;;;;;10.38;5.05;;;31.10;49.70;;;;;;4864338;29;20025;-76
2021/05/31 08:40:35;;;;;;;9.68;4.47;;;31.30;49.50;;;;;;4877303;29;20485;-76
2021/05/31 08:43:02;;;;;;;7.55;4.30;;;31.60;48.30;;;;;;4875401;29;20033;-76
2021/05/31 08:45:31;;;;;;;7.07;4.30;;;31.80;46.60;;;;;;4874638;29;20029;-77
2021/05/31 08:47:59;;;;;;;6.70;4.35;;;32.10;48.70;;;;;;4869277;29;20070;-77
2021/05/31 08:50:30;;;;;;;6.30;4.00;;;32.40;47.40;;;;;;4863979;29;20025;-74
2021/05/31 08:52:57;;;;;;;8.57;4.20;;;32.60;48.40;;;;;;4877727;29;20120;-74
2021/05/31 08:55:26;;;;;;;9.63;4.05;;;32.90;47.70;;;;;;4879265;29;20065;-75
2021/05/31 08:57:53;;;;;;;7.95;4.13;;;33.20;47.10;;;;;;4874249;29;20034;-74
2021/05/31 09:00:24;;;;;;;7.25;4.07;;;33.40;47.40;;;;;;4878718;29;20045;-74
2021/05/31 09:02:51;;;;;;;6.43;4.10;;;33.70;45.60;;;;;;4871951;29;20052;-73
2021/05/31 09:05:38;;;;;;;6.00;3.90;;;34.00;45.00;;;;;;4863624;29;20038;-74
2021/05/31 09:08:09;;;;;;;5.88;3.63;;;34.20;47.60;;;;;;4864113;29;20077;-74
2021/05/31 09:10:39;;;;;;;6.18;3.50;;;34.50;44.60;;;;;;4876291;29;20032;-74
2021/05/31 09:13:05;;;;;;;4.95;3.40;;;34.80;44.90;;;;;;4877172;29;20104;-74
2021/05/31 09:15:31;;;;;;;7.03;3.50;;;35.00;44.40;;;;;;4873358;29;20030;-74
2021/05/31 09:17:57;;;;;;;5.35;3.63;;;35.30;43.20;;;;;;4864511;29;20029;-74
2021/05/31 09:20:24;;;;;;;7.28;3.30;;;35.50;43.40;;;;;;4867574;29;20025;-74
2021/05/31 09:22:54;;;;;;;5.63;3.20;;;35.80;44.10;;;;;;4867096;29;20036;-74
2021/05/31 09:25:35;;;;;;;5.82;3.38;;;36.00;43.90;;;;;;4867292;29;20038;-74
2021/05/31 09:28:11;;;;;;;7.77;4.43;;;36.30;43.40;;;;;;4866565;29;20454;-74
2021/05/31 09:30:39;;;;;;;6.72;4.72;;;36.60;43.50;;;;;;4867300;29;20073;-74
2021/05/31 09:33:11;;;;;;;7.63;4.60;;;36.90;42.70;;;;;;4867764;29;20132;-76
2021/05/31 09:35:43;;;;;;;41.50;37.28;;;37.10;41.30;;;;;;4867377;29;20037;-75
2021/05/31 09:38:09;;;;;;;7.32;4.47;;;37.40;42.30;;;;;;4867079;29;20036;-75
2021/05/31 09:40:36;;;;;;;5.72;3.00;;;37.60;41.40;;;;;;4866196;29;20031;-75
2021/05/31 09:43:05;;;;;;;4.97;2.78;;;37.80;40.60;;;;;;4878098;29;20390;-73
2021/05/31 09:45:33;;;;;;;5.45;2.80;;;38.10;39.10;;;;;;4878325;29;20117;-72
2021/05/31 09:48:03;;;;;;;6.55;3.28;;;38.20;40.20;;;;;;4877405;29;20034;-73
2021/05/31 09:50:31;;;;;;;5.07;3.15;;;38.40;40.30;;;;;;4876872;29;20420;-73
2021/05/31 09:53:15;;;;;;;4.35;2.80;;;38.70;41.30;;;;;;4876540;29;20062;-73
2021/05/31 09:55:47;;;;;;;5.70;3.60;;;38.90;39.30;;;;;;4867296;29;20025;-73
2021/05/31 09:58:15;;;;;;;6.65;4.40;;;39.20;37.30;;;;;;4855076;29;20032;-73
2021/05/31 10:00:50;;;;;;;5.18;2.70;;;39.30;37.60;;;;;;4877989;29;20021;-72
2021/05/31 10:10:54;;;;;;;4.95;3.05;;;39.80;36.50;;;;;;4879788;29;20131;-73
2021/05/31 10:13:22;;;;;;;4.45;2.50;;;40.00;34.30;;;;;;4868325;29;20064;-73
2021/05/31 10:15:48;;;;;;;6.25;2.70;;;40.10;33.70;;;;;;4866266;29;20081;-73
2021/05/31 10:18:15;;;;;;;4.82;2.80;;;40.10;36.10;;;;;;4879160;29;20022;-73
2021/05/31 10:20:42;;;;;;;4.43;2.50;;;40.30;36.20;;;;;;4866296;29;20025;-73
2021/05/31 10:23:09;;;;;;;5.13;2.70;;;40.50;36.40;;;;;;4866691;29;20033;-75
2021/05/31 10:25:38;;;;;;;4.20;2.70;;;40.70;35.20;;;;;;4866524;29;20359;-75
2021/05/31 10:28:19;;;;;;;4.63;2.75;;;40.90;33.90;;;;;;4862346;29;20026;-75
2021/05/31 10:30:50;;;;;;;5.67;2.33;;;41.00;31.50;;;;;;4878781;29;20074;-75
2021/05/31 10:33:21;;;;;;;5.18;2.55;;;40.90;30.40;;;;;;4866392;29;20267;-75
2021/05/31 10:35:48;;;;;;;5.40;2.70;;;40.80;33.20;;;;;;4865902;29;20086;-75
2021/05/31 10:38:19;;;;;;;5.07;2.65;;;40.80;32.30;;;;;;4875480;29;20030;-75
2021/05/31 10:40:47;;;;;;;4.18;2.40;;;40.80;32.40;;;;;;4880816;29;20025;-75
2021/05/31 10:43:19;;;;;;;4.25;2.45;;;40.80;31.70;;;;;;4875736;29;20047;-75
2021/05/31 10:45:45;;;;;;;4.75;2.50;;;40.80;34.90;;;;;;4877655;29;20029;-75
2021/05/31 10:48:19;;;;;;;8.70;5.03;;;40.90;34.40;;;;;;4890619;29;20522;-72
2021/05/31 10:51:00;;;;;;;5.10;3.00;;;41.00;35.40;;;;;;4888635;29;20032;-73
2021/05/31 10:53:32;;;;;;;6.80;3.00;;;41.00;33.00;;;;;;4892510;29;20028;-75
2021/05/31 10:56:02;;;;;;;4.60;2.50;;;41.00;33.00;;;;;;4871445;29;20112;-74
2021/05/31 10:58:35;;;;;;;4.20;2.50;;;40.90;32.70;;;;;;4873422;29;20052;-73
2021/05/31 11:01:08;;;;;;;6.30;4.13;;;40.90;34.10;;;;;;4891592;29;20040;-74
2021/05/31 11:04:04;;;;;;;4.45;2.40;;;40.90;29.70;;;;;;4884589;29;20021;-74
2021/05/31 11:06:39;;;;;;;4.32;2.38;;;40.80;32.00;;;;;;4873313;29;20096;-74
2021/05/31 11:09:08;;;;;;;4.05;2.40;;;40.70;31.70;;;;;;4882918;29;20272;-76
2021/05/31 11:11:49;;;;;;;4.03;2.40;;;40.60;33.70;;;;;;4884203;29;20040;-77
2021/05/31 11:14:17;;;;;;;5.43;2.20;;;40.70;33.80;;;;;;4890917;29;20024;-77
2021/05/31 11:16:54;;;;;;;6.25;2.63;;;40.90;33.20;;;;;;4880162;29;20041;-76
2021/05/31 11:19:35;;;;;;;3.55;2.13;;;41.00;33.40;;;;;;4880231;29;20029;-78
2021/05/31 11:22:11;;;;;;;3.97;2.30;;;41.10;33.00;;;;;;4865355;29;20044;-77
2021/05/31 11:24:37;;;;;;;4.30;2.40;;;41.20;33.40;;;;;;4874864;29;20478;-74
2021/05/31 11:27:03;;;;;;;3.75;2.33;;;41.20;33.40;;;;;;4872177;29;20116;-75
2021/05/31 11:29:29;;;;;;;4.53;2.20;;;41.30;32.20;;;;;;4848943;29;20120;-72
2021/05/31 11:31:55;;;;;;;4.45;2.20;;;41.20;32.20;;;;;;4865447;29;20117;-74
2021/05/31 11:34:21;;;;;;;4.97;2.65;;;41.00;30.60;;;;;;4865485;29;20018;-73
2021/05/31 11:36:47;;;;;;;6.45;2.50;;;40.90;32.60;;;;;;4865446;29;20068;-73
2021/05/31 11:39:16;;;;;;;6.68;2.20;;;40.70;32.20;;;;;;4866686;29;20021;-72
2021/05/31 11:41:43;;;;;;;4.75;2.10;;;40.50;30.60;;;;;;4883184;29;20116;-72
2021/05/31 11:44:11;;;;;;;5.40;2.40;;;40.20;31.30;;;;;;4870195;29;20026;-78
2021/05/31 11:46:44;;;;;;;4.00;2.20;;;39.80;30.90;;;;;;4876805;29;20040;-76
2021/05/31 11:49:11;;;;;;;4.55;2.00;;;39.50;30.50;;;;;;4881315;29;20025;-76
2021/05/31 11:51:37;;;;;;;3.75;2.00;;;39.10;31.70;;;;;;4855850;29;20517;-76
2021/05/31 11:54:04;;;;;;;4.25;2.10;;;38.80;31.80;;;;;;4864072;29;20026;-76
2021/05/31 11:56:34;;;;;;;7.10;2.35;;;38.60;33.00;;;;;;4865095;29;20180;-74
2021/05/31 11:59:00;;;;;;;5.93;2.20;;;38.40;31.30;;;;;;4874803;29;20029;-74
2021/05/31 12:01:28;;;;;;;4.55;1.83;;;38.10;31.90;;;;;;4871355;29;20120;-74
2021/05/31 12:03:54;;;;;;;5.20;2.22;;;37.80;32.50;;;;;;4871290;29;20025;-74
2021/05/31 12:06:20;;;;;;;3.90;2.00;;;37.50;32.40;;;;;;4870608;29;20129;-73
2021/05/31 12:08:53;;;;;;;4.60;1.98;;;37.00;30.70;;;;;;4870414;29;20033;-74
2021/05/31 12:11:27;;;;;;;4.22;2.13;;;36.60;31.30;;;;;;4885219;29;20089;-73
2021/05/31 12:14:01;;;;;;;4.72;2.38;;;36.20;32.40;;;;;;4865028;29;20119;-74
2021/05/31 12:16:27;;;;;;;6.18;1.90;;;35.80;32.50;;;;;;4864421;29;20065;-74
2021/05/31 12:18:53;;;;;;;4.88;2.00;;;35.40;32.70;;;;;;4864490;29;20029;-73
2021/05/31 12:21:19;;;;;;;3.50;1.92;;;35.00;32.10;;;;;;4864711;29;20153;-73
2021/05/31 12:23:52;;;;;;;4.28;1.92;;;34.50;32.20;;;;;;4864462;29;20022;-73
2021/05/31 12:26:22;;;;;;;5.40;2.00;;;34.10;32.10;;;;;;4864303;29;20037;-73
2021/05/31 12:28:52;;;;;;;5.18;2.20;;;33.70;32.20;;;;;;4864322;29;20393;-75
2021/05/31 12:31:18;;;;;;;3.65;1.90;;;33.30;32.10;;;;;;4870683;29;20112;-75
2021/05/31 12:33:44;;;;;;;4.63;2.28;;;33.00;32.00;;;;;;4869827;29;20021;-75
2021/05/31 12:36:11;;;;;;;4.22;2.30;;;32.60;32.10;;;;;;4864334;29;20041;-75
2021/05/31 12:38:39;;;;;;;5.72;2.15;;;32.40;33.10;;;;;;4863998;29;20041;-75
2021/05/31 12:41:05;;;;;;;4.25;2.20;;;32.20;33.20;;;;;;4872887;29;20072;-74
2021/05/31 12:43:33;;;;;;;4.00;2.42;;;31.90;32.70;;;;;;4875495;29;20044;-74
2021/05/31 12:46:00;;;;;;;5.00;2.50;;;31.70;32.80;;;;;;4872291;29;20030;-74
2021/05/31 12:48:26;;;;;;;4.10;2.30;;;31.60;33.20;;;;;;4867038;29;20034;-74
2021/05/31 12:50:55;;;;;;;6.00;2.83;;;31.30;33.10;;;;;;4881838;29;20033;-74
2021/05/31 12:53:21;;;;;;;4.43;2.35;;;31.10;33.80;;;;;;4886006;29;20432;-74
2021/05/31 12:55:48;;;;;;;4.53;2.40;;;31.00;33.00;;;;;;4886412;29;20026;-74
2021/05/31 12:58:21;;;;;;;4.15;2.55;;;30.80;33.50;;;;;;4885694;29;20017;-74
2021/05/31 13:00:47;;;;;;;5.35;2.30;;;30.70;33.90;;;;;;4886223;29;20025;-74
2021/05/31 13:03:16;;;;;;;6.03;2.50;;;30.50;33.90;;;;;;4886003;29;20025;-74
2021/05/31 13:05:47;;;;;;;5.53;2.30;;;30.40;33.70;;;;;;4886002;29;20048;-74